No particular awareness of the weather is required.    There are no Weather-warnings

Karlovy Vary SW more information Karlovy Vary SW


Karlovy Vary ESE more information Karlovy Vary ESE


Thunder radar more information blitzortung!


Rain radar more information rain snow radar


Visit our other weather sites:

Template documentation
and downloads

My WDL Site

WX

iWDL

MeteoWare Live



Nearby METAR Reports

  
LKKV - Karlovy Vary, Czech Republic
Distance from station: ESE 6km
Updated: 21.09.2018 06:00
Clear
Clear  
 Wind from ESE
Wind: ESE 7 km/h
Temperature:  12°C
Dew Point:  10°C
Humidity:  88%
Barometer:  1015 hPa
Summary:  Clear
Visibility:  greater than 10 km
2018/09/21 04:00 LKKV 210400Z 11004KT CAVOK 12/10 Q1015
LKLN - Plzeň, Czech Republic
Distance from station: SSE 68km
Updated: 21.09.2018 06:00
Clear
Clear  
 Wind from varies
Wind: varies 2 km/h
Temperature:  10°C
Dew Point:  10°C
Humidity:  100%
Barometer:  1015 hPa
Summary:  Clear
Visibility:  greater than 10 km
2018/09/21 04:00 LKLN 210400Z AUTO VRB01KT CAVOK 10/10 Q1015
EDAC - Altenburg-Nobitz, Germany
Distance from station: NNW 87km
Updated: 21.09.2018 06:20
Clear
Clear  
 Wind from S
Wind: S 9 km/h
Temperature:  20°C
Dew Point:  12°C
Humidity:  60%
Barometer:  1011 hPa
Clouds:  Clear
Visibility:  10 km
2018/09/21 04:20 EDAC 210420Z AUTO 17005KT 120V210 9999 // NCD 20/12 Q1011
ETIC - Grafenwöhr, Germany
Distance from station: SW 88km
Updated: 21.09.2018 05:56
Clear
Clear  
 Wind from calm
Wind: Calm
Temperature:  10°C
Dew Point:  10°C
Humidity:  100%
Barometer:  1014.2 hPa
Clouds:  Clear
Visibility:  10 km
2018/09/21 03:56 ETIC 210356Z AUTO 00000KT 9999 CLR 10/10 A2995 RMK AO2 SLP134 T00990099 TSNO $
LKPR - Prague/Ruzyne, Czech Republic
Distance from station: E 103km
Updated: 21.09.2018 06:30
Clear
Clear  
 Wind from SSE
Wind: SSE 13 km/h
Temperature:  15°C
Dew Point:  11°C
Humidity:  77%
Barometer:  1014 hPa
Summary:  Clear
Visibility:  greater than 10 km
2018/09/21 04:30 LKPR 210430Z 16007KT CAVOK 15/11 Q1014 NOSIG
EDQM - Hof, Germany
Distance from station: W 71km
Updated: 21.09.2018 06:20
Clear
Clear  
 Wind from SSW
Wind: SSW 9 km/h
Temperature:  16°C
Dew Point:  11°C
Humidity:  72%
Barometer:  1013 hPa
Summary:  Clear
Visibility:  greater than 10 km
2018/09/21 04:20 EDQM 210420Z 20005KT CAVOK 16/11 Q1013

Script developed by  Saratoga-weather.org Adapted for the template by  Weerstation Leuven

Equipment we use:


Weather-station
TFA Nexus

Weather-program
Meteohub

Weather-server
SilverStone DC01

Provider
WIA

TFA Nexus

Meteohub

SilverStone DC01

WIA